Time;durP1;ratioP1;P1;durP2;ratioP2;P2;SDS_P1;SDS_P2;PMS_P1;PMS_P2;Temp;Humidity;BMP_temperature;BMP_pressure;BME280_temperature;BME280_humidity;BME280_pressure;Samples;Min_cycle;Max_cycle;Signal;HPM_P1;HPM_P2
2023/06/09 00:01:11;;;;;;;6.27;4.70;;;19.40;99.90;;;19.92;nan;100291.06;5023434;28;20676;-67
2023/06/09 00:03:39;;;;;;;7.37;5.20;;;19.40;99.90;;;19.89;nan;100283.47;5013391;28;21205;-66
2023/06/09 00:06:10;;;;;;;7.53;5.20;;;19.40;99.90;;;19.89;nan;100295.91;5016554;28;20701;-67
2023/06/09 00:08:37;;;;;;;12.43;5.40;;;19.40;99.90;;;19.89;nan;100288.78;5023546;28;20640;-66
2023/06/09 00:11:04;;;;;;;7.40;5.27;;;19.40;99.90;;;19.92;nan;100285.78;5026622;28;20660;-67
2023/06/09 00:13:31;;;;;;;6.20;4.80;;;19.40;99.90;;;19.90;nan;100285.13;5009340;28;21049;-67
2023/06/09 00:15:58;;;;;;;5.73;5.00;;;19.40;99.90;;;19.86;nan;100285.66;5017883;28;20643;-68
2023/06/09 00:18:25;;;;;;;8.70;4.73;;;19.40;99.90;;;19.81;nan;100294.13;5013579;28;20637;-66
2023/06/09 00:20:52;;;;;;;6.93;4.17;;;19.30;99.90;;;19.77;nan;100289.38;5014488;28;20672;-68
2023/06/09 00:23:19;;;;;;;7.13;5.40;;;19.30;99.90;;;19.75;nan;100286.91;5014768;28;20648;-65
2023/06/09 00:25:46;;;;;;;5.80;4.40;;;19.30;99.90;;;19.72;nan;100297.84;5013706;28;20641;-69
2023/06/09 00:28:14;;;;;;;8.10;5.80;;;19.20;99.90;;;19.72;nan;100300.50;5023600;28;20620;-66
2023/06/09 00:30:41;;;;;;;4.83;4.33;;;19.20;99.90;;;19.78;nan;100302.44;5029752;28;20664;-66
2023/06/09 00:33:08;;;;;;;7.37;4.27;;;19.30;99.90;;;19.78;nan;100297.13;5023772;28;20672;-69
2023/06/09 00:35:35;;;;;;;6.10;4.60;;;19.30;99.90;;;19.79;nan;100290.84;5021083;28;20648;-65
2023/06/09 00:38:02;;;;;;;6.13;4.70;;;19.30;99.90;;;19.81;nan;100299.44;5026155;28;20620;-68
2023/06/09 00:40:29;;;;;;;6.20;4.33;;;19.40;99.90;;;19.77;nan;100290.22;5018912;28;20656;-66
2023/06/09 00:42:57;;;;;;;6.10;4.90;;;19.30;99.90;;;19.72;nan;100291.75;5022664;28;20625;-66
2023/06/09 00:45:24;;;;;;;4.40;4.00;;;19.30;99.90;;;19.71;nan;100290.91;5019815;28;20632;-65
2023/06/09 00:47:52;;;;;;;5.10;4.10;;;19.20;99.90;;;19.64;nan;100292.63;5018833;28;20624;-67
2023/06/09 00:50:20;;;;;;;5.03;4.27;;;19.20;99.90;;;19.65;nan;100294.28;5017803;28;20636;-67
2023/06/09 00:52:48;;;;;;;11.50;4.37;;;19.20;99.90;;;19.65;nan;100299.56;5017618;28;21083;-65
2023/06/09 00:55:17;;;;;;;5.90;4.60;;;19.20;99.90;;;19.60;nan;100296.63;5021113;28;20618;-68
2023/06/09 00:57:47;;;;;;;5.57;4.07;;;19.10;99.90;;;19.59;nan;100302.91;5014686;28;21178;-67
2023/06/09 01:00:16;;;;;;;7.10;5.07;;;19.10;99.90;;;19.57;nan;100289.00;5025211;28;20628;-71
2023/06/09 01:02:43;;;;;;;5.27;4.63;;;19.10;99.90;;;19.60;nan;100291.31;5024825;28;21164;-67
2023/06/09 01:05:12;;;;;;;5.50;4.60;;;19.10;99.90;;;19.63;nan;100290.16;5019863;28;20641;-67
2023/06/09 01:08:00;;;;;;;7.97;5.47;;;19.20;99.90;;;19.58;nan;100282.75;5014740;28;20609;-66
2023/06/09 01:10:56;;;;;;;8.93;6.20;;;19.10;99.90;;;19.60;nan;100291.31;5019810;28;20636;-65
2023/06/09 01:13:29;;;;;;;6.00;5.00;;;19.10;99.90;;;19.54;nan;100284.09;5017338;28;21044;-65
2023/06/09 01:16:05;;;;;;;9.33;6.73;;;19.10;99.90;;;19.50;nan;100282.81;5020939;28;20640;-66
2023/06/09 01:18:35;;;;;;;8.57;5.13;;;19.00;99.90;;;19.51;nan;100291.53;5020275;28;20632;-64
2023/06/09 01:21:32;;;;;;;5.43;4.90;;;19.10;99.90;;;19.42;nan;100288.16;5018827;28;20672;-65
2023/06/09 01:29:20;;;;;;;5.33;4.43;;;18.90;99.90;;;19.29;nan;100280.72;5520295;22;20711;-65
2023/06/09 01:31:48;;;;;;;4.57;3.80;;;18.80;99.90;;;19.25;nan;100294.50;5012486;28;20642;-64
2023/06/09 01:34:18;;;;;;;6.30;4.90;;;18.80;99.90;;;19.22;nan;100284.25;5029288;28;20684;-65
2023/06/09 01:39:30;;;;;;;7.67;5.20;;;18.70;99.90;;;19.12;nan;100279.19;5695790;22;21393;-63
2023/06/09 01:41:57;;;;;;;7.10;4.70;;;18.70;99.90;;;19.12;nan;100283.66;4996934;28;21075;-65
2023/06/09 01:44:23;;;;;;;8.10;4.87;;;18.60;99.90;;;19.10;nan;100280.38;5005956;28;20642;-65
2023/06/09 01:46:50;;;;;;;5.07;3.80;;;18.60;99.90;;;19.06;nan;100279.88;5011281;28;20634;-66
2023/06/09 01:49:29;;;;;;;4.77;4.23;;;18.60;99.90;;;19.08;nan;100277.06;5004527;28;21022;-64
2023/06/09 01:52:41;;;;;;;8.00;4.43;;;18.60;99.90;;;19.03;nan;100274.94;5019302;28;21427;-65
2023/06/09 01:55:20;;;;;;;13.83;8.33;;;18.60;99.90;;;19.05;nan;100280.06;4989547;28;21196;-67
2023/06/09 01:58:05;;;;;;;6.23;4.60;;;18.60;99.90;;;19.06;nan;100284.38;5025285;28;20635;-66
2023/06/09 02:00:32;;;;;;;5.00;4.10;;;18.60;99.90;;;19.04;nan;100283.69;5015895;28;20668;-64
2023/06/09 02:03:00;;;;;;;7.30;4.90;;;18.60;99.90;;;19.04;nan;100283.69;5019010;28;20628;-65
2023/06/09 02:05:29;;;;;;;6.57;4.40;;;18.60;99.90;;;18.99;nan;100283.41;5019332;28;21025;-64
2023/06/09 02:07:57;;;;;;;7.33;4.10;;;18.60;99.90;;;18.94;nan;100286.56;5017286;28;20621;-67
2023/06/09 02:10:25;;;;;;;6.00;4.73;;;18.50;99.90;;;18.86;nan;100289.25;5009047;28;20668;-65
2023/06/09 02:12:52;;;;;;;5.63;4.10;;;18.50;99.90;;;18.81;nan;100280.16;5008733;28;20653;-65
2023/06/09 02:15:19;;;;;;;6.50;4.83;;;18.40;99.90;;;18.80;nan;100278.53;5009164;28;20628;-65
2023/06/09 02:17:46;;;;;;;6.83;4.70;;;18.40;99.90;;;18.85;nan;100281.47;5018246;28;20618;-64
2023/06/09 02:20:14;;;;;;;5.83;4.10;;;18.40;99.90;;;18.82;nan;100276.53;5006503;28;20731;-65
2023/06/09 02:22:41;;;;;;;8.63;6.00;;;18.40;99.90;;;18.80;nan;100267.94;5008724;28;21381;-66
2023/06/09 02:25:09;;;;;;;6.40;4.83;;;18.40;99.90;;;18.78;nan;100268.13;5008521;28;20641;-66
2023/06/09 02:27:36;;;;;;;5.90;4.57;;;18.40;99.90;;;18.76;nan;100272.72;5009981;28;21450;-66
2023/06/09 02:30:03;;;;;;;5.17;4.67;;;18.30;99.90;;;18.82;nan;100271.25;5018568;28;20675;-65
2023/06/09 02:32:31;;;;;;;6.50;5.33;;;18.40;99.90;;;18.85;nan;100276.16;5016953;28;20634;-67
2023/06/09 02:34:58;;;;;;;6.07;5.07;;;18.40;99.90;;;18.83;nan;100273.69;5006865;28;21061;-66
2023/06/09 02:37:26;;;;;;;5.67;4.57;;;18.40;99.90;;;18.80;nan;100270.59;5004213;28;20629;-67
2023/06/09 02:39:53;;;;;;;9.03;5.20;;;18.40;99.90;;;18.72;nan;100268.78;5004771;28;20672;-66
2023/06/09 02:42:20;;;;;;;5.87;5.00;;;18.30;99.90;;;18.73;nan;100266.97;5007281;28;20644;-66
2023/06/09 02:44:48;;;;;;;6.93;4.83;;;18.30;99.90;;;18.75;nan;100264.97;5003237;28;20641;-66
2023/06/09 02:47:15;;;;;;;6.03;4.53;;;18.30;99.90;;;18.74;nan;100272.09;5002572;28;20640;-65
2023/06/09 02:49:42;;;;;;;13.30;5.20;;;18.30;99.90;;;18.74;nan;100266.78;5005566;28;20661;-66
2023/06/09 02:52:09;;;;;;;9.10;5.13;;;18.30;99.90;;;18.69;nan;100274.44;5007060;28;20645;-65
2023/06/09 02:54:37;;;;;;;7.10;5.13;;;18.30;99.90;;;18.66;nan;100266.84;5008017;28;20667;-66
2023/06/09 02:57:04;;;;;;;7.07;5.03;;;18.20;99.90;;;18.62;nan;100267.34;5010076;28;20593;-66
2023/06/09 02:59:31;;;;;;;6.67;5.10;;;18.20;99.90;;;18.58;nan;100275.63;5007348;28;20661;-66
2023/06/09 03:01:58;;;;;;;5.60;4.40;;;18.20;99.90;;;18.57;nan;100270.50;5009001;28;21168;-66
2023/06/09 03:04:25;;;;;;;7.40;4.77;;;18.20;99.90;;;18.54;nan;100276.13;5007321;28;20985;-66
2023/06/09 03:06:53;;;;;;;6.60;4.87;;;18.10;99.90;;;18.50;nan;100282.75;5010542;28;20610;-66
2023/06/09 03:09:20;;;;;;;9.90;5.67;;;18.10;99.90;;;18.47;nan;100283.91;5006856;28;21259;-67
2023/06/09 03:11:47;;;;;;;8.27;7.00;;;18.00;99.90;;;18.49;nan;100279.28;5009006;28;20622;-66
2023/06/09 03:14:14;;;;;;;8.93;6.33;;;18.10;99.90;;;18.49;nan;100289.00;5011887;28;20680;-67
2023/06/09 03:16:41;;;;;;;7.67;5.23;;;18.10;99.90;;;18.44;nan;100272.88;5001483;28;21192;-66
2023/06/09 03:19:09;;;;;;;7.67;5.20;;;18.00;99.90;;;18.43;nan;100285.22;5005067;28;21321;-66
2023/06/09 03:21:36;;;;;;;7.63;5.83;;;18.10;99.90;;;18.36;nan;100281.59;5006698;28;20677;-66
2023/06/09 03:24:06;;;;;;;7.50;5.43;;;18.00;99.90;;;18.27;nan;100287.88;5013224;28;21191;-66
2023/06/09 03:26:33;;;;;;;9.37;5.93;;;17.90;99.90;;;18.21;nan;100287.72;5021757;28;20636;-66
2023/06/09 03:29:00;;;;;;;8.17;6.10;;;17.80;99.90;;;18.18;nan;100288.06;5027102;28;20725;-66
2023/06/09 03:31:27;;;;;;;10.20;6.00;;;17.70;99.90;;;18.16;nan;100275.03;5006861;28;20661;-65
2023/06/09 03:33:56;;;;;;;8.10;5.30;;;17.70;99.90;;;18.15;nan;100283.94;5012208;28;20672;-67
2023/06/09 03:36:24;;;;;;;8.90;5.77;;;17.70;99.90;;;18.14;nan;100287.59;5009015;28;21262;-66
2023/06/09 03:38:51;;;;;;;7.00;5.60;;;17.70;99.90;;;18.15;nan;100289.22;5012155;28;20672;-66
2023/06/09 03:41:18;;;;;;;9.60;5.80;;;17.70;99.90;;;18.18;nan;100282.78;5008930;28;20645;-66
2023/06/09 03:43:45;;;;;;;7.80;5.40;;;17.80;99.90;;;18.22;nan;100292.84;5000830;28;20657;-66
2023/06/09 03:46:12;;;;;;;7.47;5.97;;;17.80;99.90;;;18.21;nan;100293.81;4992726;28;20590;-64
2023/06/09 03:48:42;;;;;;;8.33;6.00;;;17.80;99.90;;;18.23;nan;100296.31;5016239;28;20633;-66
2023/06/09 03:51:09;;;;;;;7.50;5.50;;;17.80;99.90;;;18.22;nan;100298.13;5006968;28;20628;-66
2023/06/09 03:53:36;;;;;;;9.30;6.17;;;17.80;99.90;;;18.28;nan;100300.09;5026996;28;20649;-66
2023/06/09 03:56:04;;;;;;;7.70;5.60;;;17.90;99.90;;;18.34;nan;100304.69;5011021;28;20641;-66
2023/06/09 03:58:31;;;;;;;6.13;5.10;;;17.90;99.90;;;18.39;nan;100291.00;5005621;28;20614;-65
2023/06/09 04:00:58;;;;;;;9.00;6.80;;;18.00;99.90;;;18.41;nan;100289.84;4997697;28;20630;-63
2023/06/09 04:03:25;;;;;;;7.70;5.17;;;18.00;99.90;;;18.51;nan;100285.22;5008395;28;20616;-65
2023/06/09 04:05:52;;;;;;;7.77;5.30;;;18.10;99.90;;;18.65;nan;100285.50;5009862;28;20641;-66
2023/06/09 04:08:19;;;;;;;4.70;4.20;;;18.20;99.90;;;18.75;nan;100284.31;5008305;28;20610;-65
2023/06/09 04:10:46;;;;;;;4.93;4.40;;;18.30;99.90;;;18.86;nan;100291.88;4992010;28;20677;-66
2023/06/09 04:13:13;;;;;;;7.37;5.67;;;18.40;99.90;;;18.96;nan;100289.84;5006959;28;20677;-66
2023/06/09 04:15:40;;;;;;;7.60;5.73;;;18.50;99.90;;;19.13;nan;100294.06;5011088;28;21441;-66
2023/06/09 04:18:07;;;;;;;5.87;5.07;;;18.70;99.90;;;19.28;nan;100294.13;5008743;28;20652;-67
2023/06/09 04:20:35;;;;;;;9.23;5.47;;;18.80;99.90;;;19.40;nan;100290.13;5012510;28;20663;-65
2023/06/09 04:23:03;;;;;;;7.90;5.83;;;19.00;99.90;;;19.48;nan;100287.44;5018650;28;20632;-65
2023/06/09 04:25:30;;;;;;;6.60;4.80;;;19.00;99.90;;;19.65;nan;100296.09;4995794;28;20637;-67
2023/06/09 04:27:58;;;;;;;7.27;4.50;;;19.20;99.90;;;19.78;nan;100301.63;5012211;28;21013;-65
2023/06/09 04:30:25;;;;;;;4.57;4.10;;;19.30;99.90;;;19.97;nan;100296.66;4998225;28;20650;-64
2023/06/09 04:32:53;;;;;;;5.73;4.53;;;19.50;99.90;;;20.14;nan;100300.00;5012149;28;20686;-67
2023/06/09 04:35:22;;;;;;;9.53;6.20;;;19.70;99.90;;;20.33;nan;100301.34;5003793;28;21049;-66
2023/06/09 04:37:50;;;;;;;7.40;5.40;;;19.90;99.90;;;20.54;nan;100304.91;5015827;28;20605;-66
2023/06/09 04:40:21;;;;;;;8.37;5.70;;;20.00;99.90;;;20.77;nan;100312.78;5015910;28;20676;-65
2023/06/09 04:42:52;;;;;;;5.30;3.93;;;20.30;99.90;;;20.95;nan;100307.09;5002796;28;20635;-66
2023/06/09 04:45:20;;;;;;;5.30;4.47;;;20.50;99.90;;;21.07;nan;100295.88;4998315;28;20620;-68
2023/06/09 04:47:48;;;;;;;5.93;3.97;;;20.60;99.90;;;21.22;nan;100298.47;4997381;28;21185;-66
2023/06/09 04:50:16;;;;;;;5.80;4.70;;;20.80;99.90;;;21.39;nan;100305.22;5000902;28;20664;-63
2023/06/09 04:52:44;;;;;;;6.40;4.50;;;20.90;99.90;;;21.45;nan;100310.59;5025340;28;20637;-66
2023/06/09 04:55:14;;;;;;;5.30;4.40;;;21.00;99.90;;;21.59;nan;100311.56;5030035;28;20690;-66
2023/06/09 04:57:41;;;;;;;6.43;5.40;;;21.10;99.90;;;21.76;nan;100309.47;5017000;28;21176;-66
2023/06/09 05:00:16;;;;;;;6.93;5.60;;;21.30;99.90;;;21.90;nan;100312.09;5006296;28;20676;-66
2023/06/09 05:02:44;;;;;;;5.73;4.70;;;21.40;99.90;;;22.02;nan;100307.91;5013538;28;20992;-67
2023/06/09 05:05:12;;;;;;;3.73;3.40;;;21.60;99.90;;;22.18;nan;100304.97;5004278;28;20648;-65
2023/06/09 05:07:40;;;;;;;7.30;5.70;;;21.70;99.90;;;22.34;nan;100309.16;5011793;28;20641;-65
2023/06/09 05:10:10;;;;;;;7.97;6.27;;;21.90;99.90;;;22.42;nan;100304.50;5010724;28;20683;-68
2023/06/09 05:12:38;;;;;;;7.33;6.27;;;22.00;99.90;;;22.60;nan;100308.53;5016610;28;20682;-66
2023/06/09 05:15:06;;;;;;;9.57;7.90;;;22.10;99.90;;;22.74;nan;100308.47;5019699;28;20663;-67
2023/06/09 05:17:34;;;;;;;9.23;7.10;;;22.30;99.90;;;22.76;nan;100313.56;5007887;28;20637;-66
2023/06/09 05:20:01;;;;;;;5.50;4.30;;;22.30;99.90;;;22.73;nan;100327.25;5009441;28;20715;-65
2023/06/09 05:22:28;;;;;;;5.57;4.50;;;22.30;99.90;;;22.66;nan;100321.88;5006708;28;20684;-67
2023/06/09 05:24:55;;;;;;;6.13;5.27;;;22.30;99.90;;;22.65;nan;100317.59;5011329;28;20622;-65
2023/06/09 05:27:22;;;;;;;6.70;6.00;;;22.30;99.90;;;22.80;nan;100320.97;5001737;28;20710;-66
2023/06/09 05:29:49;;;;;;;9.00;6.47;;;22.40;99.90;;;22.90;nan;100326.75;5016681;28;20655;-66
2023/06/09 05:32:17;;;;;;;9.60;6.70;;;22.50;99.90;;;23.11;nan;100326.63;5008668;28;20653;-66
2023/06/09 05:34:46;;;;;;;8.10;7.00;;;22.60;99.90;;;23.37;nan;100325.09;5016843;28;20659;-66
2023/06/09 05:37:15;;;;;;;8.77;6.60;;;22.90;99.90;;;23.56;nan;100321.69;4999712;28;21035;-67
2023/06/09 05:39:42;;;;;;;7.73;6.23;;;23.10;99.90;;;23.74;nan;100328.09;4995926;28;21038;-66
2023/06/09 05:42:09;;;;;;;3.93;3.60;;;23.30;99.90;;;23.96;nan;100326.03;5006859;28;21251;-69
2023/06/09 05:44:37;;;;;;;11.83;7.47;;;23.40;99.90;;;24.15;nan;100325.25;5018221;28;20634;-66
2023/06/09 05:47:04;;;;;;;8.23;6.90;;;23.70;99.90;;;24.27;nan;100331.63;5019359;28;20609;-67
2023/06/09 05:49:33;;;;;;;6.87;6.03;;;23.80;99.90;;;24.37;nan;100328.53;5018685;28;20657;-67
2023/06/09 05:52:00;;;;;;;7.27;5.50;;;23.90;99.90;;;24.52;nan;100337.13;5001744;28;20637;-66
2023/06/09 05:54:27;;;;;;;9.70;6.90;;;24.00;99.90;;;24.65;nan;100340.63;5021237;28;20645;-66
2023/06/09 05:56:54;;;;;;;9.10;6.10;;;24.20;99.90;;;24.90;nan;100338.09;5020472;28;20636;-67
2023/06/09 05:59:23;;;;;;;5.53;5.00;;;24.40;99.90;;;25.14;nan;100337.41;5019566;28;20668;-66
2023/06/09 06:01:50;;;;;;;6.77;5.87;;;24.60;99.90;;;25.37;nan;100331.56;5021365;28;20613;-67
2023/06/09 06:04:17;;;;;;;6.57;5.90;;;24.80;99.90;;;25.59;nan;100343.59;5008826;28;20641;-68
2023/06/09 06:06:45;;;;;;;8.80;7.10;;;25.00;99.90;;;25.81;nan;100339.53;5003577;28;20634;-67
2023/06/09 06:09:12;;;;;;;7.20;5.67;;;25.20;99.90;;;26.03;nan;100332.81;5001163;28;20677;-65
2023/06/09 06:11:39;;;;;;;5.77;5.27;;;25.40;99.90;;;26.28;nan;100345.41;5005005;28;21139;-65
2023/06/09 06:14:06;;;;;;;6.33;5.73;;;25.70;99.90;;;26.48;nan;100340.69;5001452;28;20670;-67
2023/06/09 06:16:33;;;;;;;4.60;4.10;;;26.00;99.90;;;26.87;nan;100340.31;4999721;28;20627;-67
2023/06/09 06:19:00;;;;;;;7.50;6.17;;;26.40;99.50;;;27.22;nan;100352.03;5000746;28;20658;-67
2023/06/09 06:21:27;;;;;;;8.33;6.10;;;26.70;98.70;;;27.63;nan;100351.34;5008659;28;20634;-66
2023/06/09 06:23:54;;;;;;;8.47;6.50;;;27.00;98.10;;;27.99;nan;100339.69;5012238;28;20621;-67
2023/06/09 06:26:22;;;;;;;8.43;6.20;;;27.50;97.00;;;28.34;nan;100345.94;5019884;28;20628;-67
2023/06/09 06:28:50;;;;;;;6.40;4.20;;;27.80;96.50;;;28.85;nan;100350.59;5010752;28;20667;-66
2023/06/09 06:31:17;;;;;;;9.93;6.53;;;28.20;95.60;;;29.25;nan;100342.59;5010326;28;20609;-68
2023/06/09 06:33:44;;;;;;;8.27;6.33;;;28.70;94.60;;;29.61;nan;100336.81;5002284;28;21024;-68
2023/06/09 06:36:12;;;;;;;8.40;6.97;;;29.10;93.60;;;30.09;nan;100341.72;5008518;28;21023;-67
2023/06/09 06:38:39;;;;;;;7.60;6.80;;;29.40;92.60;;;30.32;nan;100337.03;5002650;28;20644;-67
2023/06/09 06:41:06;;;;;;;6.70;6.10;;;29.70;91.50;;;30.49;nan;100354.00;5007001;28;20668;-68
2023/06/09 06:43:33;;;;;;;4.17;3.57;;;29.90;90.80;;;30.81;nan;100353.34;5006134;28;20617;-67
2023/06/09 06:46:01;;;;;;;5.67;5.17;;;30.20;89.80;;;31.32;nan;100351.06;4996504;28;20648;-68
2023/06/09 06:48:28;;;;;;;6.40;5.80;;;30.70;88.60;;;32.12;nan;100352.97;5005925;28;20634;-67
2023/06/09 06:50:55;;;;;;;5.87;4.00;;;31.50;86.10;;;32.69;nan;100351.22;4993017;28;20649;-67
2023/06/09 06:53:25;;;;;;;6.53;5.40;;;32.00;82.70;;;33.35;nan;100354.28;5006418;28;20633;-68
2023/06/09 06:55:52;;;;;;;3.37;3.10;;;32.70;80.40;;;33.86;nan;100357.91;5015435;28;20660;-68
2023/06/09 06:58:19;;;;;;;4.50;4.10;;;33.30;76.40;;;33.93;nan;100347.59;5028324;28;20617;-68
2023/06/09 07:00:46;;;;;;;6.07;5.47;;;33.40;73.70;;;34.64;nan;100353.84;5010399;28;20661;-68
2023/06/09 07:03:14;;;;;;;2.83;2.63;;;34.00;72.80;;;34.57;nan;100358.72;5005144;28;20673;-68
2023/06/09 07:05:41;;;;;;;5.73;4.40;;;34.50;68.80;;;34.62;nan;100351.41;5003115;28;21253;-67
2023/06/09 07:08:08;;;;;;;5.27;4.87;;;34.30;68.40;;;35.13;nan;100353.97;5010240;28;20625;-68
2023/06/09 07:10:35;;;;;;;4.50;4.10;;;34.70;67.30;;;35.82;nan;100357.41;5021302;28;20657;-67
2023/06/09 07:13:03;;;;;;;4.60;4.20;;;35.20;65.60;;;36.10;nan;100364.78;5013076;28;20610;-68
2023/06/09 07:15:30;;;;;;;4.97;4.30;;;35.60;63.30;;;36.68;nan;100367.50;4990477;28;20657;-67
2023/06/09 07:17:57;;;;;;;4.47;4.10;;;36.00;62.60;;;37.16;nan;100361.78;4992298;28;20989;-69
2023/06/09 07:20:24;;;;;;;5.00;4.63;;;36.70;61.30;;;37.62;nan;100369.34;5006743;28;20649;-69
2023/06/09 07:22:52;;;;;;;5.43;5.00;;;37.10;59.60;;;38.28;nan;100374.63;5005172;28;20664;-65
2023/06/09 07:25:19;;;;;;;5.00;4.70;;;37.70;58.20;;;38.42;nan;100372.75;5026364;28;20615;-65
2023/06/09 07:27:47;;;;;;;6.10;5.60;;;38.00;57.10;;;38.69;nan;100375.53;5013726;28;20638;-65
2023/06/09 07:30:15;;;;;;;5.50;5.10;;;38.30;55.80;;;39.42;nan;100378.91;5014916;28;20664;-65
2023/06/09 07:32:43;;;;;;;4.50;4.20;;;38.90;54.50;;;39.57;nan;100379.72;5014777;28;20637;-64
2023/06/09 07:35:13;;;;;;;5.43;3.63;;;39.30;53.60;;;39.85;nan;100386.69;5016832;28;20678;-64
2023/06/09 07:37:42;;;;;;;4.50;4.20;;;39.60;52.60;;;39.35;nan;100378.56;5005318;28;21233;-66
2023/06/09 07:40:09;;;;;;;5.00;4.70;;;39.30;52.20;;;39.59;nan;100383.78;5006730;28;20641;-65
2023/06/09 07:42:45;;;;;;;3.60;3.40;;;39.40;51.70;;;39.85;nan;100383.97;4997463;28;20828;-66
2023/06/09 07:45:12;;;;;;;4.53;4.23;;;39.50;51.50;;;40.40;nan;100388.09;5006576;28;20629;-66
2023/06/09 07:47:40;;;;;;;4.87;4.57;;;40.00;51.10;;;40.55;nan;100387.69;4992526;28;20649;-67
2023/06/09 07:50:08;;;;;;;4.37;3.37;;;40.30;50.20;;;40.62;nan;100384.50;4990690;28;20677;-65
2023/06/09 07:52:39;;;;;;;5.37;5.07;;;40.50;49.40;;;40.06;nan;100376.94;5019749;28;20617;-66
2023/06/09 07:55:07;;;;;;;4.10;3.90;;;40.10;49.50;;;39.99;nan;100385.56;5009070;28;20633;-66
2023/06/09 07:57:40;;;;;;;4.70;4.50;;;39.80;49.50;;;39.98;nan;100364.81;5007762;28;21165;-66
2023/06/09 08:00:08;;;;;;;5.93;4.67;;;40.00;49.80;;;40.61;nan;100378.25;5011491;28;20664;-66
2023/06/09 08:02:40;;;;;;;5.17;4.87;;;40.40;48.90;;;41.21;nan;100374.91;4986605;28;21007;-67
2023/06/09 08:05:08;;;;;;;4.20;4.00;;;40.90;48.40;;;40.79;nan;100370.88;5007261;28;20993;-65
2023/06/09 08:07:36;;;;;;;4.17;3.97;;;40.80;47.80;;;41.11;nan;100370.53;5011487;28;21249;-64
2023/06/09 08:10:04;;;;;;;3.90;3.70;;;40.90;47.50;;;41.43;nan;100374.78;5011758;28;20645;-66
2023/06/09 08:12:31;;;;;;;3.80;3.60;;;41.30;47.60;;;41.73;nan;100371.13;5005531;28;20641;-64
2023/06/09 08:14:58;;;;;;;4.47;4.27;;;41.60;47.50;;;41.89;nan;100375.00;5021614;28;20668;-65
2023/06/09 08:17:25;;;;;;;4.33;4.00;;;41.90;47.10;;;42.02;nan;100373.22;5009233;28;21228;-66
2023/06/09 08:19:52;;;;;;;4.60;4.40;;;42.00;46.90;;;42.28;nan;100369.28;5015629;28;20668;-66
2023/06/09 08:22:20;;;;;;;4.27;3.87;;;42.30;46.70;;;42.37;nan;100369.25;5010151;28;21230;-66
2023/06/09 08:24:47;;;;;;;4.77;4.37;;;42.40;46.10;;;42.54;nan;100373.91;5012220;28;21169;-64
2023/06/09 08:27:14;;;;;;;4.20;4.00;;;42.40;45.40;;;42.78;nan;100365.91;5006631;28;20978;-66
2023/06/09 08:29:41;;;;;;;8.70;4.40;;;42.60;45.50;;;42.47;nan;100372.47;5002634;28;20677;-66
2023/06/09 08:32:08;;;;;;;4.47;4.27;;;42.50;44.90;;;42.39;nan;100362.31;4998693;28;20641;-66
2023/06/09 08:34:35;;;;;;;5.33;5.03;;;42.40;45.40;;;42.81;nan;100362.50;5019331;28;20692;-67
2023/06/09 08:37:03;;;;;;;4.50;4.20;;;42.70;46.00;;;43.18;nan;100358.91;5008217;28;20630;-66
2023/06/09 08:39:30;;;;;;;4.00;3.53;;;43.00;45.30;;;43.34;nan;100354.44;5019204;28;20782;-66
2023/06/09 08:42:01;;;;;;;3.03;2.90;;;43.30;44.20;;;43.35;nan;100349.75;5009112;28;20690;-66
2023/06/09 08:44:30;;;;;;;3.47;3.37;;;43.40;43.70;;;42.98;nan;100345.94;5010030;28;20609;-67
2023/06/09 08:47:02;;;;;;;4.60;4.30;;;42.80;43.80;;;43.02;nan;100357.91;5011199;28;20617;-67
2023/06/09 08:49:29;;;;;;;3.80;3.70;;;43.00;43.50;;;43.71;nan;100348.03;5007813;28;20660;-68
2023/06/09 08:51:58;;;;;;;4.43;4.23;;;43.50;43.40;;;43.89;nan;100338.47;5011893;28;20632;-65
2023/06/09 08:54:26;;;;;;;3.70;3.57;;;43.80;43.30;;;44.62;nan;100339.44;5028526;28;20597;-67
2023/06/09 08:56:53;;;;;;;4.10;3.90;;;44.40;43.40;;;44.88;nan;100346.56;5023696;28;20643;-67
2023/06/09 08:59:22;;;;;;;5.00;4.80;;;44.80;43.30;;;44.55;nan;100333.75;5010348;28;20660;-65
2023/06/09 09:01:49;;;;;;;4.40;4.20;;;44.80;43.10;;;44.65;nan;100340.72;5009412;28;20639;-67
2023/06/09 09:04:18;;;;;;;3.30;3.20;;;44.60;43.00;;;44.92;nan;100347.50;5014829;28;20624;-67
2023/06/09 09:06:45;;;;;;;4.30;4.20;;;44.90;42.50;;;45.32;nan;100340.13;5025186;28;20633;-67
2023/06/09 09:09:12;;;;;;;4.80;4.60;;;45.20;42.10;;;45.76;nan;100347.31;5001963;28;20721;-65
2023/06/09 09:11:40;;;;;;;4.60;4.40;;;45.60;42.10;;;45.76;nan;100341.00;5018711;28;21227;-67
2023/06/09 09:14:11;;;;;;;4.43;4.30;;;45.80;41.80;;;46.32;nan;100344.50;5006358;28;20640;-67
2023/06/09 09:16:38;;;;;;;5.00;4.80;;;46.20;41.60;;;46.11;nan;100342.75;4992349;28;20679;-67
2023/06/09 09:19:05;;;;;;;5.27;5.07;;;46.30;41.80;;;45.59;nan;100342.09;5005074;28;20659;-65
2023/06/09 09:21:37;;;;;;;4.40;4.23;;;45.80;42.10;;;45.59;nan;100333.03;5008432;28;20644;-66
2023/06/09 09:24:06;;;;;;;4.90;4.70;;;45.70;42.20;;;45.41;nan;100331.72;5002921;28;20643;-67
2023/06/09 09:26:33;;;;;;;4.67;4.50;;;45.60;42.30;;;45.23;nan;100326.47;5021483;28;20644;-67
2023/06/09 09:29:07;;;;;;;5.00;4.80;;;45.40;42.20;;;45.32;nan;100321.59;5004663;28;20673;-66
2023/06/09 09:31:41;;;;;;;4.57;4.37;;;45.40;42.30;;;45.54;nan;100324.97;5022121;28;20607;-65
2023/06/09 09:34:15;;;;;;;4.63;4.43;;;45.50;42.10;;;45.43;nan;100326.66;5005396;28;20615;-66
2023/06/09 09:36:44;;;;;;;4.20;4.00;;;45.40;42.00;;;45.53;nan;100326.94;5010539;28;20668;-67
2023/06/09 09:39:11;;;;;;;4.80;4.60;;;45.40;42.00;;;45.15;nan;100313.59;4991634;28;20653;-65
2023/06/09 09:41:38;;;;;;;4.60;4.40;;;45.20;42.60;;;44.58;nan;100311.03;5011360;28;20630;-67
2023/06/09 09:44:06;;;;;;;5.33;5.03;;;44.90;42.20;;;44.92;nan;100307.00;5006457;28;21001;-67
2023/06/09 09:46:37;;;;;;;4.53;4.33;;;45.00;43.00;;;44.72;nan;100294.16;5025413;28;20645;-67
2023/06/09 09:49:07;;;;;;;4.83;4.60;;;44.80;42.00;;;44.50;nan;100297.38;5009207;28;20668;-68
2023/06/09 09:51:37;;;;;;;4.67;4.47;;;44.60;42.20;;;44.30;nan;100288.06;5000499;28;20642;-66
2023/06/09 09:54:05;;;;;;;4.80;4.60;;;44.30;42.60;;;43.63;nan;100291.19;5006691;28;20633;-68
2023/06/09 09:56:33;;;;;;;5.07;4.87;;;43.60;43.00;;;43.12;nan;100286.13;5014895;28;20676;-66
2023/06/09 09:59:02;;;;;;;4.93;4.63;;;43.20;43.40;;;43.23;nan;100282.63;5002579;28;20654;-65
2023/06/09 10:01:29;;;;;;;4.30;4.10;;;42.90;43.70;;;42.99;nan;100281.69;5021899;28;20601;-66
2023/06/09 10:03:57;;;;;;;5.77;5.43;;;42.50;43.60;;;41.63;nan;100275.56;5008012;28;21061;-67
2023/06/09 10:06:29;;;;;;;3.50;3.30;;;41.30;44.40;;;40.14;nan;100280.53;5005211;28;20642;-66
2023/06/09 10:08:58;;;;;;;4.07;3.80;;;40.10;44.40;;;39.37;nan;100266.31;4987674;28;20673;-65
2023/06/09 10:11:31;;;;;;;4.50;4.20;;;38.80;45.30;;;38.73;nan;100265.56;5010054;28;20609;-65
2023/06/09 10:14:00;;;;;;;5.10;4.80;;;38.10;47.00;;;38.23;nan;100252.84;4996126;28;20638;-66
2023/06/09 10:16:28;;;;;;;4.57;4.27;;;37.60;47.80;;;37.78;nan;100259.91;5008647;28;20677;-66
2023/06/09 10:18:56;;;;;;;4.53;4.23;;;37.10;47.80;;;37.05;nan;100250.72;5007097;28;20669;-66
2023/06/09 10:21:25;;;;;;;4.13;3.83;;;36.50;48.40;;;36.07;nan;100243.16;5008890;28;20653;-68
2023/06/09 10:23:52;;;;;;;4.37;4.07;;;35.70;49.10;;;35.16;nan;100242.22;5008738;28;21204;-66
2023/06/09 10:26:21;;;;;;;5.20;4.80;;;34.70;49.80;;;34.07;nan;100240.44;5011007;28;20621;-66
2023/06/09 10:28:49;;;;;;;5.27;4.87;;;33.80;52.10;;;33.55;nan;100238.00;5007103;28;21220;-67
2023/06/09 10:31:18;;;;;;;3.80;3.60;;;33.10;52.80;;;33.20;nan;100241.44;5010843;28;20605;-66
2023/06/09 10:33:46;;;;;;;3.60;3.30;;;32.60;53.10;;;32.92;nan;100240.00;5008031;28;21257;-66
2023/06/09 10:36:14;;;;;;;3.97;3.60;;;32.30;52.50;;;32.58;nan;100243.41;5024460;28;20688;-66
2023/06/09 10:38:53;;;;;;;4.60;4.20;;;32.10;52.60;;;32.42;nan;100244.38;5019951;28;20638;-67